Terminal Aerodrome Forecast
Issued by NWS Milwaukee/Sullivan, WI

Home | Current Version | Previous Version | Text Only | Print | Product List | Glossary On
Versions: 1 2 3 4 5 6 7 8 9 10 11 12 13 14 15 16 17 18 19 20 21 22 23 24 25
000
FTUS43 KMKX 191901 AAA
TAFMKE
TAF AMD
KMKE 191901Z 1919/2024 07006KT 1/2SM -RA FG OVC002
      TEMPO 1919/1923 1/4SM RA FG OVC005
     FM192300 06007KT 1/2SM RA FG VCTS OVC003CB
     FM200900 VRB04KT 1/2SM RA FG VCTS OVC003CB WS020/24035KT
     FM201600 19006KT 1SM RA BR OVC003 WS015/22035KT
     FM201800 22008KT 1SM RA OVC008=

USA.gov is the U.S. government's official web portal to all federal, state and local government web resources and services.